createdAt,value
2022-10-07T00:00:25.010Z,21.78
2022-10-07T00:02:51.509Z,21.81
2022-10-07T00:05:17.934Z,21.79
2022-10-07T00:07:44.639Z,21.77
2022-10-07T00:10:11.365Z,21.77
2022-10-07T00:12:37.805Z,21.77
2022-10-07T00:15:04.768Z,21.75
2022-10-07T00:17:31.210Z,21.75
2022-10-07T00:19:58.218Z,21.75
2022-10-07T00:22:24.657Z,21.74
2022-10-07T00:24:51.102Z,21.75
2022-10-07T00:27:17.559Z,21.73
2022-10-07T00:29:45.209Z,21.73
2022-10-07T00:32:11.642Z,21.73
2022-10-07T00:34:38.081Z,21.73
2022-10-07T00:37:04.472Z,21.71
2022-10-07T00:39:30.912Z,21.72
2022-10-07T00:41:57.234Z,21.81
2022-10-07T00:44:33.229Z,21.90
2022-10-07T00:47:00.956Z,21.72
2022-10-07T00:49:30.126Z,21.70
2022-10-07T00:51:56.626Z,21.68
2022-10-07T00:54:23.031Z,21.68
2022-10-07T00:56:49.376Z,21.69
2022-10-07T00:59:15.689Z,21.69
2022-10-07T01:01:42.283Z,21.69
2022-10-07T01:04:09.862Z,21.69
2022-10-07T01:06:38.267Z,21.67
2022-10-07T01:09:05.647Z,21.66
2022-10-07T01:11:39.150Z,21.64
2022-10-07T01:14:14.702Z,21.66
2022-10-07T01:16:47.786Z,21.61
2022-10-07T01:19:36.306Z,21.63
2022-10-07T01:22:13.058Z,21.62
2022-10-07T01:24:39.313Z,21.62
2022-10-07T01:27:18.815Z,21.63
2022-10-07T01:29:59.160Z,21.60
2022-10-07T01:32:33.150Z,21.61
2022-10-07T01:35:01.260Z,21.61
2022-10-07T01:37:28.674Z,21.61
2022-10-07T01:39:56.788Z,21.61
2022-10-07T01:42:23.111Z,21.61
2022-10-07T01:44:51.186Z,21.61
2022-10-07T01:47:17.506Z,21.59
2022-10-07T01:49:43.886Z,21.59
2022-10-07T01:52:16.526Z,21.57
2022-10-07T01:55:01.682Z,21.57
2022-10-07T01:57:36.305Z,21.56
2022-10-07T02:00:05.451Z,21.57
2022-10-07T02:02:48.533Z,21.55
2022-10-07T02:05:35.496Z,21.56
2022-10-07T02:08:25.201Z,21.55
2022-10-07T02:10:58.373Z,21.53
2022-10-07T02:13:27.244Z,21.54
2022-10-07T02:15:56.536Z,21.53
2022-10-07T02:18:22.950Z,21.53
2022-10-07T02:20:51.962Z,21.51
2022-10-07T02:23:20.642Z,21.52
2022-10-07T02:25:47.840Z,21.53
2022-10-07T02:28:14.759Z,21.52
2022-10-07T02:30:41.219Z,21.52
2022-10-07T02:33:07.705Z,21.53
2022-10-07T02:35:33.989Z,21.51
2022-10-07T02:38:02.452Z,21.52
2022-10-07T02:40:49.378Z,21.50
2022-10-07T02:43:29.812Z,21.51
2022-10-07T02:46:16.721Z,21.52
2022-10-07T02:48:44.425Z,21.60
2022-10-07T02:51:11.863Z,21.62
2022-10-07T02:53:38.779Z,21.62
2022-10-07T02:56:05.262Z,21.64
2022-10-07T02:58:31.671Z,21.69
2022-10-07T03:00:59.476Z,21.68
2022-10-07T03:03:26.549Z,21.69
2022-10-07T03:05:58.600Z,21.72
2022-10-07T03:08:25.568Z,21.70
2022-10-07T03:10:52.238Z,21.61
2022-10-07T03:13:18.881Z,21.64
2022-10-07T03:15:50.536Z,21.66
2022-10-07T03:18:28.581Z,21.66
2022-10-07T03:21:19.965Z,21.69
2022-10-07T03:23:52.432Z,21.64
2022-10-07T03:26:20.381Z,21.62
2022-10-07T03:28:47.554Z,21.63
2022-10-07T03:31:15.452Z,21.64
2022-10-07T03:33:46.795Z,21.64
2022-10-07T03:36:13.503Z,21.65
2022-10-07T03:38:42.382Z,21.65
2022-10-07T03:41:10.281Z,21.69
2022-10-07T03:43:37.859Z,21.69
2022-10-07T03:46:05.832Z,21.71
2022-10-07T03:48:35.620Z,21.70
2022-10-07T03:51:02.129Z,21.67
2022-10-07T03:53:30.613Z,21.70
2022-10-07T03:55:59.382Z,21.73
2022-10-07T03:58:25.904Z,21.71
2022-10-07T04:00:52.304Z,21.73
2022-10-07T04:03:19.350Z,21.75
2022-10-07T04:06:00.601Z,21.75
2022-10-07T04:08:29.348Z,21.74
2022-10-07T04:10:57.177Z,21.74
2022-10-07T04:13:23.581Z,21.71
2022-10-07T04:15:51.443Z,21.77
2022-10-07T04:18:18.671Z,21.73
2022-10-07T04:20:45.032Z,21.72
2022-10-07T04:23:12.447Z,21.74
2022-10-07T04:25:43.765Z,21.75
2022-10-07T04:28:17.852Z,21.75
2022-10-07T04:30:45.402Z,21.75
2022-10-07T04:33:13.561Z,21.74
2022-10-07T04:35:40.962Z,21.78
2022-10-07T04:38:08.774Z,21.80
2022-10-07T04:40:38.314Z,21.77
2022-10-07T04:43:20.317Z,21.70
2022-10-07T04:45:55.303Z,21.67
2022-10-07T04:48:23.087Z,21.68
2022-10-07T04:50:51.876Z,21.78
2022-10-07T04:53:20.323Z,21.79
2022-10-07T04:55:47.873Z,21.75
2022-10-07T04:58:14.610Z,21.72
2022-10-07T05:00:45.148Z,21.75
2022-10-07T05:03:12.130Z,21.75
2022-10-07T05:05:40.469Z,21.80
2022-10-07T05:08:07.427Z,21.80
2022-10-07T05:10:40.263Z,21.81
2022-10-07T05:13:07.228Z,21.84
2022-10-07T05:15:33.755Z,21.83
2022-10-07T05:18:00.113Z,21.73
2022-10-07T05:20:28.652Z,21.60
2022-10-07T05:22:55.390Z,21.33
2022-10-07T05:25:22.125Z,21.17
2022-10-07T05:27:53.870Z,21.70
2022-10-07T05:30:20.466Z,21.90
2022-10-07T05:32:46.857Z,22.00
2022-10-07T05:35:13.947Z,22.11
2022-10-07T05:37:40.693Z,22.25
2022-10-07T05:40:07.122Z,22.27
2022-10-07T05:42:33.481Z,22.31
2022-10-07T05:45:00.186Z,22.32
2022-10-07T05:47:26.943Z,22.44
2022-10-07T05:49:58.364Z,22.57
2022-10-07T05:52:24.757Z,22.24
2022-10-07T05:54:51.957Z,21.95
2022-10-07T05:57:18.603Z,21.93
2022-10-07T05:59:44.953Z,21.81
2022-10-07T06:02:15.086Z,21.90
2022-10-07T06:04:45.119Z,21.91
2022-10-07T06:07:11.990Z,21.95
2022-10-07T06:09:57.483Z,21.95
2022-10-07T06:12:42.580Z,21.96
2022-10-07T06:15:11.994Z,21.93
2022-10-07T06:17:44.823Z,21.85
2022-10-07T06:20:15.037Z,21.91
2022-10-07T06:22:44.078Z,22.24
2022-10-07T06:25:11.748Z,22.55
2022-10-07T06:27:38.389Z,22.75
2022-10-07T06:30:05.026Z,22.87
2022-10-07T06:32:32.603Z,22.92
2022-10-07T06:34:59.674Z,22.94
2022-10-07T06:37:26.423Z,22.92
2022-10-07T06:39:57.379Z,22.93
2022-10-07T06:42:26.644Z,22.91
2022-10-07T06:45:18.680Z,22.97
2022-10-07T06:47:45.723Z,22.97
2022-10-07T06:50:12.994Z,22.88
2022-10-07T06:52:43.328Z,22.85
2022-10-07T06:55:10.422Z,22.77
2022-10-07T06:57:46.062Z,22.85
2022-10-07T07:00:15.149Z,22.71
2022-10-07T07:02:43.196Z,22.82
2022-10-07T07:05:13.460Z,22.84
2022-10-07T07:07:40.074Z,22.80
2022-10-07T07:10:06.838Z,22.80
2022-10-07T07:12:35.779Z,22.66
2022-10-07T07:15:02.128Z,22.63
2022-10-07T07:17:28.993Z,22.68
2022-10-07T07:19:56.451Z,22.61
2022-10-07T07:22:22.991Z,22.84
2022-10-07T07:24:49.965Z,22.70
2022-10-07T07:27:16.363Z,22.65
2022-10-07T07:29:43.803Z,22.73
2022-10-07T07:32:11.227Z,22.76
2022-10-07T07:34:41.075Z,22.77
2022-10-07T07:37:10.272Z,22.80
2022-10-07T07:39:42.640Z,22.68
2022-10-07T07:42:12.103Z,22.78
2022-10-07T07:44:40.002Z,22.87
2022-10-07T07:47:09.766Z,22.79
2022-10-07T07:49:37.389Z,22.71
2022-10-07T07:52:05.470Z,22.77
2022-10-07T07:54:37.668Z,22.71
2022-10-07T07:57:04.102Z,22.71
2022-10-07T07:59:32.985Z,22.71
2022-10-07T08:01:59.757Z,22.75
2022-10-07T08:04:26.146Z,22.79
2022-10-07T08:06:53.714Z,22.94
2022-10-07T08:09:20.057Z,22.95
2022-10-07T08:11:47.778Z,22.96
2022-10-07T08:14:16.227Z,22.97
2022-10-07T08:16:47.273Z,22.79
2022-10-07T08:19:13.628Z,22.18
2022-10-07T08:21:40.429Z,22.48
2022-10-07T08:24:10.813Z,22.67
2022-10-07T08:26:38.744Z,22.74
2022-10-07T08:29:08.149Z,22.79
2022-10-07T08:31:35.608Z,22.72
2022-10-07T08:34:02.399Z,22.55
2022-10-07T08:36:29.078Z,22.52
2022-10-07T08:38:55.986Z,22.36
2022-10-07T08:41:36.431Z,22.11
2022-10-07T08:44:18.102Z,22.29
2022-10-07T08:47:02.925Z,22.46
2022-10-07T08:49:54.370Z,22.22
2022-10-07T08:52:32.742Z,22.41
2022-10-07T08:55:00.475Z,22.51
2022-10-07T08:57:46.527Z,22.54
2022-10-07T09:00:13.735Z,22.45
2022-10-07T09:02:51.810Z,22.52
2022-10-07T09:05:22.577Z,22.38
2022-10-07T09:07:50.081Z,22.39
2022-10-07T09:10:30.029Z,22.37
2022-10-07T09:12:56.859Z,22.32
2022-10-07T09:15:31.357Z,22.31
2022-10-07T09:18:10.761Z,22.08
2022-10-07T09:20:37.713Z,21.98
2022-10-07T09:23:04.511Z,22.11
2022-10-07T09:25:30.878Z,22.15
2022-10-07T09:27:57.235Z,22.11
2022-10-07T09:30:23.958Z,22.15
2022-10-07T09:32:51.076Z,22.14
2022-10-07T09:35:18.361Z,22.14
2022-10-07T09:37:55.403Z,22.12
2022-10-07T09:40:22.971Z,22.15
2022-10-07T09:42:49.724Z,22.16
2022-10-07T09:45:21.008Z,22.14
2022-10-07T09:47:51.253Z,22.13
2022-10-07T09:50:31.134Z,22.12
2022-10-07T09:52:57.482Z,22.11
2022-10-07T09:55:32.568Z,22.12
2022-10-07T09:57:59.802Z,22.10
2022-10-07T10:00:26.247Z,22.06
2022-10-07T10:02:54.019Z,22.09
2022-10-07T10:05:20.427Z,22.05
2022-10-07T10:07:47.225Z,22.09
2022-10-07T10:10:17.241Z,22.09
2022-10-07T10:12:47.121Z,22.09
2022-10-07T10:15:22.945Z,22.04
2022-10-07T10:17:49.925Z,22.04
2022-10-07T10:20:22.094Z,22.01
2022-10-07T10:22:49.706Z,22.03
2022-10-07T10:25:35.633Z,22.07
2022-10-07T10:28:06.879Z,22.07
2022-10-07T10:30:33.255Z,22.05
2022-10-07T10:33:10.155Z,22.03
2022-10-07T10:35:49.107Z,21.94
2022-10-07T10:38:33.974Z,22.11
2022-10-07T10:41:00.231Z,22.27
2022-10-07T10:43:45.332Z,22.37
2022-10-07T10:46:26.621Z,22.43
2022-10-07T10:49:10.593Z,22.39
2022-10-07T10:51:46.067Z,22.33
2022-10-07T10:54:17.767Z,22.41
2022-10-07T10:56:51.769Z,22.59
2022-10-07T10:59:37.515Z,22.62
2022-10-07T11:02:12.665Z,22.45
2022-10-07T11:04:43.571Z,22.38
2022-10-07T11:07:28.591Z,22.36
2022-10-07T11:09:59.426Z,22.23
2022-10-07T11:12:28.490Z,22.72
2022-10-07T11:14:57.958Z,23.02
2022-10-07T11:17:26.505Z,23.16
2022-10-07T11:20:11.666Z,23.27
2022-10-07T11:22:39.221Z,23.29
2022-10-07T11:25:08.410Z,23.39
2022-10-07T11:27:34.714Z,23.40
2022-10-07T11:30:14.133Z,23.38
2022-10-07T11:32:49.249Z,23.14
2022-10-07T11:35:21.088Z,23.05
2022-10-07T11:37:52.284Z,22.95
2022-10-07T11:40:18.647Z,22.64
2022-10-07T11:42:46.454Z,22.72
2022-10-07T11:45:16.593Z,22.85
2022-10-07T11:47:46.825Z,23.16
2022-10-07T11:50:19.167Z,23.23
2022-10-07T11:52:46.517Z,23.05
2022-10-07T11:55:20.991Z,23.09
2022-10-07T11:57:49.946Z,23.07
2022-10-07T12:00:22.018Z,23.10
2022-10-07T12:02:49.229Z,23.05
2022-10-07T12:05:34.158Z,23.15
2022-10-07T12:08:01.173Z,23.13
2022-10-07T12:10:31.584Z,23.28
2022-10-07T12:12:58.595Z,23.21
2022-10-07T12:15:35.241Z,23.28
2022-10-07T12:18:04.321Z,23.28
2022-10-07T12:20:34.550Z,23.25
2022-10-07T12:23:22.598Z,23.25
2022-10-07T12:25:59.760Z,23.25
2022-10-07T12:28:26.100Z,23.15
2022-10-07T12:30:53.135Z,23.08
2022-10-07T12:33:35.846Z,23.36
2022-10-07T12:36:29.832Z,23.34
2022-10-07T12:38:59.304Z,23.34
2022-10-07T12:41:25.995Z,23.36
2022-10-07T12:44:12.553Z,23.29
2022-10-07T12:46:52.006Z,23.49
2022-10-07T12:49:21.221Z,23.42
2022-10-07T12:51:47.527Z,23.43
2022-10-07T12:54:17.808Z,23.32
2022-10-07T12:56:44.310Z,23.46
2022-10-07T12:59:44.872Z,23.27
2022-10-07T13:02:23.645Z,22.93
2022-10-07T13:04:54.783Z,22.87
2022-10-07T13:07:39.727Z,22.87
2022-10-07T13:10:24.932Z,22.86
2022-10-07T13:12:54.122Z,22.88
2022-10-07T13:15:25.638Z,22.86
2022-10-07T13:18:10.672Z,22.87
2022-10-07T13:20:39.159Z,22.85
2022-10-07T13:23:07.083Z,22.83
2022-10-07T13:25:33.418Z,22.84
2022-10-07T13:28:00.184Z,22.81
2022-10-07T13:30:33.669Z,22.81
2022-10-07T13:33:13.294Z,22.94
2022-10-07T13:35:39.998Z,23.16
2022-10-07T13:38:06.397Z,23.24
2022-10-07T13:40:35.748Z,23.24
2022-10-07T13:43:02.856Z,23.25
2022-10-07T13:45:29.272Z,23.50
2022-10-07T13:47:55.957Z,23.90
2022-10-07T13:50:23.333Z,23.94
2022-10-07T13:52:49.706Z,23.94
2022-10-07T13:55:28.712Z,23.96
2022-10-07T13:57:57.275Z,24.07
2022-10-07T14:00:24.582Z,24.09
2022-10-07T14:02:51.489Z,23.97
2022-10-07T14:05:28.558Z,24.00
2022-10-07T14:07:55.647Z,24.00
2022-10-07T14:10:22.293Z,23.90
2022-10-07T14:12:49.471Z,23.97
2022-10-07T14:15:19.524Z,23.89
2022-10-07T14:17:47.423Z,23.47
2022-10-07T14:20:29.923Z,23.41
2022-10-07T14:22:56.738Z,23.47
2022-10-07T14:25:23.798Z,23.56
2022-10-07T14:28:08.186Z,23.68
2022-10-07T14:30:56.320Z,23.68
2022-10-07T14:33:45.934Z,23.66
2022-10-07T14:36:19.387Z,23.70
2022-10-07T14:38:46.470Z,23.74
2022-10-07T14:41:13.114Z,23.75
2022-10-07T14:43:40.146Z,23.72
2022-10-07T14:46:07.082Z,23.74
2022-10-07T14:48:33.439Z,23.77
2022-10-07T14:50:59.750Z,23.70
2022-10-07T14:53:26.066Z,23.69
2022-10-07T14:55:52.376Z,23.69
2022-10-07T14:58:18.709Z,23.67
2022-10-07T15:00:45.100Z,23.69
2022-10-07T15:03:11.455Z,23.67
2022-10-07T15:05:37.823Z,23.60
2022-10-07T15:08:04.340Z,23.59
2022-10-07T15:10:32.423Z,23.62
2022-10-07T15:12:59.476Z,23.51
2022-10-07T15:15:25.878Z,23.55
2022-10-07T15:17:52.366Z,23.56
2022-10-07T15:20:18.899Z,23.50
2022-10-07T15:22:46.033Z,23.52
2022-10-07T15:25:12.630Z,23.54
2022-10-07T15:27:40.043Z,23.50
2022-10-07T15:30:07.317Z,23.40
2022-10-07T15:32:33.921Z,23.39
2022-10-07T15:35:00.450Z,23.48
2022-10-07T15:37:27.523Z,23.46
2022-10-07T15:39:54.262Z,23.51
2022-10-07T15:42:21.192Z,23.39
2022-10-07T15:44:50.643Z,23.47
2022-10-07T15:47:17.495Z,23.39
2022-10-07T15:49:43.978Z,23.45
2022-10-07T15:52:11.560Z,23.48
2022-10-07T15:54:38.108Z,23.35
2022-10-07T15:57:04.581Z,23.39
2022-10-07T15:59:30.991Z,23.40
2022-10-07T16:01:57.619Z,23.43
2022-10-07T16:04:24.111Z,23.49
2022-10-07T16:06:53.594Z,23.41
2022-10-07T16:09:20.486Z,23.44
2022-10-07T16:11:47.617Z,23.50
2022-10-07T16:14:14.206Z,23.54
2022-10-07T16:16:41.262Z,23.61
2022-10-07T16:19:07.908Z,23.72
2022-10-07T16:21:35.248Z,23.45
2022-10-07T16:24:02.464Z,23.22
2022-10-07T16:26:30.169Z,23.19
2022-10-07T16:29:15.793Z,23.34
2022-10-07T16:31:42.464Z,23.14
2022-10-07T16:34:09.282Z,23.10
2022-10-07T16:36:36.006Z,23.05
2022-10-07T16:39:03.439Z,23.06
2022-10-07T16:41:29.933Z,23.10
2022-10-07T16:43:57.027Z,23.35
2022-10-07T16:46:23.507Z,23.29
2022-10-07T16:48:49.883Z,23.13
2022-10-07T16:51:19.722Z,23.07
2022-10-07T16:53:46.537Z,23.18
2022-10-07T16:56:13.171Z,23.06
2022-10-07T16:58:39.670Z,22.50
2022-10-07T17:01:09.773Z,22.52
2022-10-07T17:03:36.529Z,22.63
2022-10-07T17:06:03.178Z,22.68
2022-10-07T17:08:35.320Z,22.68
2022-10-07T17:11:04.111Z,22.54
2022-10-07T17:13:30.914Z,22.52
2022-10-07T17:15:57.341Z,22.52
2022-10-07T17:18:26.019Z,22.66
2022-10-07T17:20:52.729Z,22.76
2022-10-07T17:23:20.968Z,22.81
2022-10-07T17:25:47.427Z,22.84
2022-10-07T17:28:13.829Z,22.90
2022-10-07T17:30:40.264Z,22.89
2022-10-07T17:33:06.972Z,22.96
2022-10-07T17:35:33.692Z,22.83
2022-10-07T17:38:00.295Z,22.69
2022-10-07T17:40:29.897Z,22.79
2022-10-07T17:42:56.257Z,22.77
2022-10-07T17:45:22.593Z,22.82
2022-10-07T17:47:49.234Z,22.89
2022-10-07T17:50:16.049Z,22.91
2022-10-07T17:52:42.387Z,22.87
2022-10-07T17:55:08.995Z,22.80
2022-10-07T17:57:35.311Z,22.79
2022-10-07T18:00:04.460Z,22.99
2022-10-07T18:02:39.534Z,22.86
2022-10-07T18:05:06.600Z,23.05
2022-10-07T18:07:32.945Z,22.91
2022-10-07T18:09:59.273Z,22.85
2022-10-07T18:12:44.336Z,22.76
2022-10-07T18:15:19.534Z,22.79
2022-10-07T18:17:47.739Z,22.78
2022-10-07T18:20:15.262Z,22.65
2022-10-07T18:22:44.040Z,22.60
2022-10-07T18:25:11.783Z,22.55
2022-10-07T18:27:40.940Z,22.43
2022-10-07T18:30:07.513Z,22.53
2022-10-07T18:32:33.852Z,22.52
2022-10-07T18:35:00.181Z,22.59
2022-10-07T18:37:26.502Z,22.51
2022-10-07T18:39:52.821Z,22.48
2022-10-07T18:42:19.207Z,22.44
2022-10-07T18:44:45.613Z,22.38
2022-10-07T18:47:11.987Z,22.48
2022-10-07T18:49:38.346Z,22.51
2022-10-07T18:52:07.255Z,22.55
2022-10-07T18:54:33.638Z,22.51
2022-10-07T18:56:59.960Z,22.51
2022-10-07T18:59:26.270Z,22.55
2022-10-07T19:01:52.694Z,22.55
2022-10-07T19:04:19.414Z,22.52
2022-10-07T19:06:46.252Z,22.51
2022-10-07T19:09:16.760Z,22.52
2022-10-07T19:11:43.157Z,22.50
2022-10-07T19:14:09.457Z,22.49
2022-10-07T19:16:42.423Z,22.50
2022-10-07T19:19:16.922Z,22.50
2022-10-07T19:21:47.366Z,22.50
2022-10-07T19:24:14.017Z,22.49
2022-10-07T19:26:44.273Z,22.50
2022-10-07T19:29:10.810Z,22.44
2022-10-07T19:31:40.141Z,22.47
2022-10-07T19:34:10.717Z,22.48
2022-10-07T19:36:37.708Z,22.44
2022-10-07T19:39:04.221Z,22.42
2022-10-07T19:41:31.466Z,22.42
2022-10-07T19:43:58.045Z,22.41
2022-10-07T19:46:27.847Z,22.42
2022-10-07T19:48:56.265Z,22.38
2022-10-07T19:51:23.519Z,22.37
2022-10-07T19:53:49.971Z,22.37
2022-10-07T19:56:23.217Z,22.35
2022-10-07T19:58:53.540Z,22.36
2022-10-07T20:01:23.557Z,22.31
2022-10-07T20:03:50.473Z,22.32
2022-10-07T20:06:17.149Z,22.30
2022-10-07T20:08:44.329Z,22.30
2022-10-07T20:11:10.778Z,22.30
2022-10-07T20:13:37.723Z,22.28
2022-10-07T20:16:08.063Z,22.29
2022-10-07T20:18:34.846Z,22.27
2022-10-07T20:21:01.488Z,22.25
2022-10-07T20:23:31.199Z,22.23
2022-10-07T20:25:57.545Z,22.28
2022-10-07T20:28:23.985Z,22.26
2022-10-07T20:30:50.374Z,22.21
2022-10-07T20:33:16.733Z,22.23
2022-10-07T20:35:43.067Z,22.26
2022-10-07T20:38:09.381Z,22.22
2022-10-07T20:40:54.275Z,22.22
2022-10-07T20:43:20.611Z,22.21
2022-10-07T20:45:59.342Z,22.18
2022-10-07T20:48:28.685Z,22.20
2022-10-07T20:50:55.226Z,22.20
2022-10-07T20:53:21.547Z,22.19
2022-10-07T20:55:47.865Z,22.15
2022-10-07T20:58:14.884Z,22.16
2022-10-07T21:00:41.341Z,22.14
2022-10-07T21:03:07.723Z,22.15
2022-10-07T21:05:34.271Z,22.14
2022-10-07T21:08:00.610Z,22.16
2022-10-07T21:10:26.918Z,22.15
2022-10-07T21:12:53.243Z,22.13
2022-10-07T21:15:20.080Z,22.10
2022-10-07T21:17:48.707Z,22.14
2022-10-07T21:20:15.013Z,22.13
2022-10-07T21:22:41.334Z,22.10
2022-10-07T21:25:08.923Z,22.05
2022-10-07T21:27:35.241Z,22.08
2022-10-07T21:30:01.574Z,22.08
2022-10-07T21:32:28.131Z,22.07
2022-10-07T21:34:56.049Z,22.07
2022-10-07T21:37:22.359Z,22.07
2022-10-07T21:39:48.675Z,22.04
2022-10-07T21:42:15.634Z,22.04
2022-10-07T21:44:43.066Z,22.08
2022-10-07T21:47:09.499Z,22.05
2022-10-07T21:49:35.815Z,22.04
2022-10-07T21:52:02.125Z,22.02
2022-10-07T21:54:28.437Z,22.06
2022-10-07T21:56:54.746Z,22.02
2022-10-07T21:59:21.071Z,22.02
2022-10-07T22:01:47.445Z,22.03
2022-10-07T22:04:15.634Z,22.01
2022-10-07T22:07:00.541Z,21.98
2022-10-07T22:09:26.851Z,21.99
2022-10-07T22:11:53.171Z,22.01
2022-10-07T22:14:19.515Z,22.00
2022-10-07T22:16:49.533Z,22.00
2022-10-07T22:19:17.467Z,21.98
2022-10-07T22:21:45.501Z,21.98
2022-10-07T22:24:12.438Z,21.98
2022-10-07T22:26:40.000Z,21.99
2022-10-07T22:29:06.723Z,21.94
2022-10-07T22:31:33.106Z,21.97
2022-10-07T22:33:59.693Z,21.95
2022-10-07T22:36:26.083Z,21.94
2022-10-07T22:38:52.682Z,21.95
2022-10-07T22:41:19.363Z,21.95
2022-10-07T22:43:45.936Z,21.94
2022-10-07T22:46:16.314Z,21.94
2022-10-07T22:48:48.553Z,21.92
2022-10-07T22:51:15.182Z,21.93
2022-10-07T22:53:48.191Z,21.94
2022-10-07T22:56:15.697Z,21.94
2022-10-07T22:58:42.237Z,21.94
2022-10-07T23:01:15.243Z,21.91
2022-10-07T23:03:43.803Z,21.91
2022-10-07T23:06:10.696Z,21.91
2022-10-07T23:08:37.086Z,21.89
2022-10-07T23:11:03.478Z,21.91
2022-10-07T23:13:31.623Z,21.88
2022-10-07T23:16:01.785Z,21.84
2022-10-07T23:18:28.648Z,21.86
2022-10-07T23:21:01.471Z,21.87
2022-10-07T23:23:27.791Z,21.85
2022-10-07T23:25:54.135Z,21.82
2022-10-07T23:28:21.548Z,21.85
2022-10-07T23:30:48.162Z,21.90
2022-10-07T23:33:14.501Z,21.91
2022-10-07T23:35:41.085Z,21.88
2022-10-07T23:38:07.484Z,21.87
2022-10-07T23:40:33.785Z,21.88
2022-10-07T23:43:00.128Z,21.88
2022-10-07T23:45:27.340Z,21.84
2022-10-07T23:47:53.649Z,21.87
2022-10-07T23:50:20.652Z,21.86
2022-10-07T23:52:47.477Z,21.87
2022-10-07T23:55:14.101Z,21.83
2022-10-07T23:57:40.416Z,21.83
